Massena, New York
Current Conditions -  °F | °C
As of 11:53 AM on Monday 22 Dec 2014 (Local Time) from KMSS Reporting Station
Overcast Overcast  
Wind Chill: 12°   Ceiling: 2600
Heat Index: 23°   Visibility: 7mi
Dew Point: 18°   Wind: 10mph
Humidity: 81%   Direction: 50°NE
Pressure: 30.37"   Gusts: NA
Location:  44.93°N, 74.89°W
Report Text: KMSS 221653Z AUTO 05009KT 7SM OVC026 M05/M08 A3037 RMK AO2 SLP291 T10501078
Loading
Personal Weather Stations






























Interactive Weather Map New forecast layout! Learn more

10-Day Weather Forecast

Advertisements
Track Severe Weather on mobile